Time;durP1;ratioP1;P1;durP2;ratioP2;P2;SDS_P1;SDS_P2;PMS_P1;PMS_P2;Temp;Humidity;BMP_temperature;BMP_pressure;BME280_temperature;BME280_humidity;BME280_pressure;Samples;Min_cycle;Max_cycle;Signal;HPM_P1;HPM_P2
2022/10/31 00:03:23;;;;;;;14.23;8.60;;;11.70;99.90;;;;;;8417623;28;20200;-69
2022/10/31 00:07:24;;;;;;;14.77;8.17;;;11.70;99.90;;;;;;8395287;28;20590;-70
2022/10/31 00:11:25;;;;;;;18.67;9.13;;;11.70;99.90;;;;;;8395889;28;20208;-70
2022/10/31 00:15:25;;;;;;;18.57;9.00;;;11.70;99.90;;;;;;8393921;28;20188;-69
2022/10/31 00:19:26;;;;;;;16.07;9.60;;;11.70;99.90;;;;;;8413721;28;20177;-70
2022/10/31 00:23:27;;;;;;;16.30;9.03;;;11.90;99.90;;;;;;8394622;28;20200;-69
2022/10/31 00:27:28;;;;;;;17.03;8.60;;;11.80;99.90;;;;;;8400496;28;20269;-70
2022/10/31 00:31:29;;;;;;;13.07;7.27;;;11.90;99.90;;;;;;8411899;28;20251;-69
2022/10/31 00:35:30;;;;;;;13.07;7.87;;;11.80;99.90;;;;;;8399229;28;20176;-70
2022/10/31 00:39:31;;;;;;;14.13;8.23;;;11.90;99.90;;;;;;8399406;28;20177;-69
2022/10/31 00:43:31;;;;;;;13.63;7.80;;;12.00;99.90;;;;;;8400652;28;20184;-70
2022/10/31 00:47:32;;;;;;;15.10;8.27;;;12.00;99.90;;;;;;8419089;28;20520;-70
2022/10/31 00:51:33;;;;;;;13.60;7.50;;;12.10;99.90;;;;;;8399325;28;20207;-69
2022/10/31 00:55:34;;;;;;;20.90;8.20;;;12.20;99.90;;;;;;8403584;28;20184;-69
2022/10/31 00:59:38;;;;;;;15.80;8.63;;;12.20;99.90;;;;;;8416994;28;20247;-70
2022/10/31 01:03:42;;;;;;;16.83;8.00;;;12.30;99.90;;;;;;8393168;28;20246;-70
2022/10/31 01:07:42;;;;;;;13.83;7.23;;;12.30;99.90;;;;;;8416672;28;20188;-70
2022/10/31 01:11:43;;;;;;;11.97;7.13;;;12.30;99.90;;;;;;8418711;28;20234;-70
2022/10/31 01:15:53;;;;;;;17.17;7.00;;;12.30;99.90;;;;;;8400196;28;20182;-70
2022/10/31 01:19:54;;;;;;;16.20;7.50;;;12.40;99.90;;;;;;8415673;28;20184;-70
2022/10/31 01:23:55;;;;;;;12.50;7.57;;;12.40;99.90;;;;;;8418291;28;20188;-70
2022/10/31 01:27:56;;;;;;;14.03;7.83;;;12.40;99.90;;;;;;8419195;28;20213;-70
2022/10/31 01:31:57;;;;;;;12.60;7.30;;;12.40;99.90;;;;;;8418470;28;20279;-69
2022/10/31 01:35:57;;;;;;;13.73;7.13;;;12.40;99.90;;;;;;8399141;28;20184;-70
2022/10/31 01:39:58;;;;;;;15.63;7.17;;;12.40;99.90;;;;;;8416187;28;20182;-70
2022/10/31 01:44:03;;;;;;;16.23;7.23;;;12.40;99.90;;;;;;8399416;28;20244;-70
2022/10/31 01:48:12;;;;;;;15.07;7.10;;;12.40;99.90;;;;;;8393861;28;20208;-71
2022/10/31 01:52:37;;;;;;;13.23;6.63;;;12.50;99.90;;;;;;8415923;28;20416;-71
2022/10/31 01:56:41;;;;;;;10.50;6.87;;;12.50;99.90;;;;;;8396039;28;20180;-70
2022/10/31 02:00:48;;;;;;;11.17;6.87;;;12.40;99.90;;;;;;8413644;28;20486;-70
2022/10/31 02:04:49;;;;;;;11.47;6.77;;;12.50;99.90;;;;;;8395767;28;20249;-71
2022/10/31 02:08:51;;;;;;;13.27;6.83;;;12.50;99.90;;;;;;8412508;28;20587;-70
2022/10/31 02:12:55;;;;;;;14.63;6.60;;;12.60;99.90;;;;;;8394842;28;20205;-70
2022/10/31 02:16:57;;;;;;;13.07;6.93;;;12.50;99.90;;;;;;8415577;28;20169;-70
2022/10/31 02:21:11;;;;;;;15.27;6.90;;;12.50;99.90;;;;;;8395309;28;20181;-70
2022/10/31 02:25:27;;;;;;;9.27;6.23;;;12.50;99.90;;;;;;8414727;28;20176;-71
2022/10/31 02:29:55;;;;;;;11.10;6.30;;;12.40;99.90;;;;;;8398019;28;20173;-71
2022/10/31 02:34:02;;;;;;;15.73;6.87;;;12.40;99.90;;;;;;8397178;28;20204;-70
2022/10/31 02:38:09;;;;;;;11.00;6.70;;;12.30;99.90;;;;;;8415919;28;20173;-71
2022/10/31 02:42:15;;;;;;;9.57;6.27;;;12.20;99.90;;;;;;8415471;28;20186;-70
2022/10/31 02:46:31;;;;;;;10.87;6.23;;;12.20;99.90;;;;;;8394577;28;20195;-70
2022/10/31 02:50:37;;;;;;;15.93;6.63;;;12.10;99.90;;;;;;8396649;28;20188;-70
2022/10/31 02:54:37;;;;;;;15.47;7.13;;;12.00;99.90;;;;;;8414765;28;20247;-70
2022/10/31 02:58:42;;;;;;;14.70;7.10;;;12.00;99.90;;;;;;8410413;28;20201;-70
2022/10/31 03:03:03;;;;;;;13.03;6.77;;;11.90;99.90;;;;;;8394633;28;20200;-70
2022/10/31 03:07:15;;;;;;;9.27;6.03;;;11.80;99.90;;;;;;8413695;28;20175;-70
2022/10/31 03:11:20;;;;;;;12.67;6.60;;;11.80;99.90;;;;;;8411892;28;20283;-70
2022/10/31 03:15:27;;;;;;;9.57;6.47;;;11.70;99.90;;;;;;8396367;28;20197;-70
2022/10/31 03:19:42;;;;;;;12.60;6.77;;;11.60;99.90;;;;;;8395489;28;20176;-70
2022/10/31 03:23:46;;;;;;;10.83;6.67;;;11.60;99.90;;;;;;8412237;28;20195;-70
2022/10/31 03:27:49;;;;;;;10.90;6.50;;;11.60;99.90;;;;;;8414076;28;20176;-70
2022/10/31 03:31:59;;;;;;;12.97;6.73;;;11.50;99.90;;;;;;8393916;28;20284;-70
2022/10/31 03:36:02;;;;;;;10.93;6.77;;;11.40;99.90;;;;;;8411047;28;20670;-70
2022/10/31 03:40:06;;;;;;;10.03;5.80;;;11.40;99.90;;;;;;8410686;28;20258;-70
2022/10/31 03:44:13;;;;;;;10.57;5.97;;;11.50;99.90;;;;;;8408968;28;20180;-70
2022/10/31 03:48:17;;;;;;;12.80;6.20;;;11.60;99.90;;;;;;8412989;28;20188;-70
2022/10/31 03:52:35;;;;;;;14.60;7.03;;;11.60;99.90;;;;;;8394507;28;20200;-70
2022/10/31 03:57:11;;;;;;;10.20;5.63;;;11.60;99.90;;;;;;8411061;28;20169;-70
2022/10/31 04:01:16;;;;;;;9.97;5.80;;;11.70;99.90;;;;;;8349203;28;20197;-70
2022/10/31 04:05:19;;;;;;;10.80;5.70;;;11.70;99.90;;;;;;8411804;28;20614;-69
2022/10/31 04:09:21;;;;;;;11.57;5.87;;;11.70;99.90;;;;;;8412798;28;20180;-70
2022/10/31 04:13:29;;;;;;;7.73;5.37;;;11.70;99.90;;;;;;8419097;28;20200;-70
2022/10/31 04:17:33;;;;;;;12.17;5.67;;;11.80;99.90;;;;;;8401474;28;20177;-70
2022/10/31 04:21:34;;;;;;;11.37;5.87;;;12.00;99.90;;;;;;8418774;28;20184;-72
2022/10/31 04:25:35;;;;;;;11.37;5.33;;;12.00;1.00;;;;;;8417193;28;21553;-70
2022/10/31 04:29:36;;;;;;;8.73;5.43;;;12.10;1.00;;;;;;8418132;28;20267;-70
2022/10/31 04:33:36;;;;;;;9.53;5.17;;;12.00;99.90;;;;;;8401257;28;20215;-69
2022/10/31 04:37:37;;;;;;;10.40;5.03;;;12.10;13.30;;;;;;8401005;28;20172;-70
2022/10/31 04:41:38;;;;;;;10.60;5.27;;;12.20;99.90;;;;;;8419173;28;20187;-70
2022/10/31 04:45:39;;;;;;;12.80;5.57;;;12.30;99.90;;;;;;8400098;28;20181;-70
2022/10/31 04:49:39;;;;;;;9.93;5.40;;;12.30;99.90;;;;;;8417890;28;20172;-70
2022/10/31 04:53:40;;;;;;;8.20;5.13;;;12.30;99.90;;;;;;8416924;28;20210;-70
2022/10/31 04:57:50;;;;;;;7.50;5.03;;;12.30;99.90;;;;;;8399933;28;20269;-69
2022/10/31 05:01:50;;;;;;;12.00;4.70;;;12.30;99.90;;;;;;8416851;28;20192;-70
2022/10/31 05:05:51;;;;;;;7.93;4.33;;;12.40;99.90;;;;;;8415265;28;20191;-69
2022/10/31 05:09:52;;;;;;;8.13;4.93;;;12.40;99.90;;;;;;8400676;28;20177;-69
2022/10/31 05:13:53;;;;;;;8.70;4.43;;;12.40;99.90;;;;;;8417816;28;20204;-70
2022/10/31 05:17:55;;;;;;;11.10;4.57;;;12.40;99.90;;;;;;8399607;28;20423;-70
2022/10/31 05:21:55;;;;;;;8.27;4.30;;;12.40;99.90;;;;;;8399543;28;20292;-70
2022/10/31 05:25:56;;;;;;;7.73;4.77;;;12.30;99.90;;;;;;8398013;28;20193;-70
2022/10/31 05:29:57;;;;;;;9.10;4.20;;;12.20;99.90;;;;;;8399060;28;20181;-70
2022/10/31 05:33:58;;;;;;;7.50;4.60;;;12.20;99.90;;;;;;8397813;28;20219;-70
2022/10/31 05:37:59;;;;;;;7.17;4.27;;;12.10;99.90;;;;;;8416265;28;20181;-70
2022/10/31 05:42:00;;;;;;;6.10;4.50;;;12.00;1.00;;;;;;8394115;28;20219;-70
2022/10/31 05:46:01;;;;;;;8.57;4.23;;;11.90;99.90;;;;;;8420124;28;20438;-70
2022/10/31 05:50:02;;;;;;;8.10;4.30;;;11.90;1.00;;;;;;8396528;28;20188;-70
2022/10/31 05:54:04;;;;;;;9.40;5.07;;;11.90;1.00;;;;;;8399927;28;20272;-69
2022/10/31 05:58:04;;;;;;;12.87;4.50;;;11.90;1.00;;;;;;8417684;28;20204;-70
2022/10/31 06:02:05;;;;;;;7.63;4.10;;;11.90;1.00;;;;;;8401565;28;20197;-70
2022/10/31 06:06:07;;;;;;;6.87;4.60;;;11.90;1.00;;;;;;8400203;28;20185;-69
2022/10/31 06:10:08;;;;;;;7.60;4.37;;;12.00;1.00;;;;;;8395334;28;20260;-69
2022/10/31 06:14:09;;;;;;;9.57;4.60;;;12.00;99.90;;;;;;8405749;28;20207;-69
2022/10/31 06:18:10;;;;;;;8.00;4.30;;;12.00;1.00;;;;;;8419435;28;20191;-70
2022/10/31 06:22:11;;;;;;;7.77;4.20;;;12.00;1.00;;;;;;8417818;28;20184;-68
2022/10/31 06:26:12;;;;;;;8.23;4.97;;;12.10;1.00;;;;;;8399441;28;20184;-67
2022/10/31 06:30:13;;;;;;;10.00;4.27;;;12.10;1.00;;;;;;8418168;28;20192;-69
2022/10/31 06:34:13;;;;;;;7.03;4.13;;;12.20;99.90;;;;;;8417388;28;20287;-69
2022/10/31 06:38:15;;;;;;;9.27;4.50;;;12.30;99.90;;;;;;8401277;28;20196;-69
2022/10/31 06:42:16;;;;;;;5.97;4.50;;;12.30;99.90;;;;;;8416345;28;20188;-68
2022/10/31 06:46:17;;;;;;;7.30;4.40;;;12.40;99.90;;;;;;8419150;28;20188;-69
2022/10/31 06:50:17;;;;;;;9.73;4.17;;;12.50;99.90;;;;;;8399387;28;20229;-70
2022/10/31 06:54:18;;;;;;;7.60;4.33;;;12.50;99.90;;;;;;8399293;28;20216;-70
2022/10/31 06:58:19;;;;;;;10.17;4.37;;;12.60;83.70;;;;;;8398303;28;20748;-69
2022/10/31 07:02:20;;;;;;;9.87;4.87;;;12.70;33.80;;;;;;8416230;28;20249;-69
2022/10/31 07:06:21;;;;;;;7.43;4.10;;;12.90;1.40;;;;;;8416928;28;20199;-69
2022/10/31 07:10:23;;;;;;;8.93;4.27;;;13.00;1.00;;;;;;8416515;28;20265;-68
2022/10/31 07:14:24;;;;;;;12.70;4.77;;;13.10;1.00;;;;;;8415726;28;20212;-69
2022/10/31 07:18:24;;;;;;;8.23;4.10;;;13.30;1.00;;;;;;8399104;28;20539;-69
2022/10/31 07:22:31;;;;;;;10.80;4.70;;;13.40;1.00;;;;;;8414161;28;20188;-69
2022/10/31 07:26:32;;;;;;;7.83;4.23;;;13.60;99.90;;;;;;8397330;28;20216;-70
2022/10/31 07:30:33;;;;;;;10.40;4.03;;;13.70;99.90;;;;;;8417476;28;20189;-70
2022/10/31 07:34:34;;;;;;;6.57;4.03;;;13.80;99.90;;;;;;8399155;28;20231;-69
2022/10/31 07:38:34;;;;;;;7.07;3.53;;;14.00;99.90;;;;;;8399203;28;20181;-72
2022/10/31 07:42:39;;;;;;;6.73;3.93;;;14.10;99.90;;;;;;8398819;28;20189;-69
2022/10/31 07:46:40;;;;;;;5.93;3.77;;;14.30;99.90;;;;;;8403223;28;20199;-70
2022/10/31 07:50:41;;;;;;;6.70;3.87;;;14.40;99.90;;;;;;8422525;28;20188;-69
2022/10/31 07:54:42;;;;;;;8.37;3.77;;;14.60;99.90;;;;;;8423034;28;20373;-71
2022/10/31 07:58:42;;;;;;;8.70;3.70;;;14.70;99.90;;;;;;8402916;28;20204;-70
2022/10/31 08:02:43;;;;;;;8.50;3.23;;;14.90;31.50;;;;;;8423218;28;20290;-69
2022/10/31 08:06:44;;;;;;;8.77;3.50;;;15.10;1.00;;;;;;8403621;28;20470;-70
2022/10/31 08:10:45;;;;;;;5.03;3.63;;;15.20;57.60;;;;;;8422543;28;20263;-69
2022/10/31 08:14:46;;;;;;;7.90;3.73;;;15.40;1.00;;;;;;8401884;28;20181;-69
2022/10/31 08:18:47;;;;;;;8.07;3.90;;;15.50;1.00;;;;;;8421304;28;20187;-69
2022/10/31 08:23:03;;;;;;;5.07;3.27;;;15.60;1.00;;;;;;8400562;28;20572;-70
2022/10/31 08:27:04;;;;;;;9.77;3.43;;;15.80;1.00;;;;;;8401497;28;20258;-70
2022/10/31 08:31:05;;;;;;;7.97;3.77;;;15.90;1.00;;;;;;8422599;28;20206;-70
2022/10/31 08:35:06;;;;;;;8.10;3.63;;;16.00;1.00;;;;;;8404341;28;20504;-70
2022/10/31 08:39:07;;;;;;;7.37;3.97;;;16.10;1.00;;;;;;8421598;28;20187;-70
2022/10/31 08:43:16;;;;;;;10.83;4.10;;;16.30;1.00;;;;;;8422247;28;20184;-70
2022/10/31 08:47:17;;;;;;;9.23;3.80;;;16.40;1.00;;;;;;8402979;28;20199;-70
2022/10/31 08:51:17;;;;;;;6.43;3.60;;;16.50;1.00;;;;;;8402998;28;20296;-70
2022/10/31 08:55:18;;;;;;;8.77;4.10;;;16.50;1.00;;;;;;8394466;28;20283;-71
2022/10/31 08:59:19;;;;;;;12.70;4.60;;;16.60;1.00;;;;;;8402749;28;20203;-70
2022/10/31 09:03:25;;;;;;;6.90;3.70;;;16.70;1.00;;;;;;8401098;28;20253;-71
2022/10/31 09:07:26;;;;;;;9.77;3.90;;;16.60;1.00;;;;;;8398900;28;20515;-70
2022/10/31 09:11:27;;;;;;;7.00;3.87;;;16.70;1.00;;;;;;8400256;28;20785;-70
2022/10/31 09:15:28;;;;;;;16.20;4.77;;;16.90;1.00;;;;;;8398755;28;20181;-71
2022/10/31 09:19:29;;;;;;;9.10;4.07;;;16.90;1.00;;;;;;8397538;28;20176;-70
2022/10/31 09:23:30;;;;;;;6.87;3.83;;;17.00;1.00;;;;;;8417962;28;20186;-70
2022/10/31 09:27:31;;;;;;;8.43;4.33;;;17.10;1.00;;;;;;8419521;28;20183;-72
2022/10/31 09:31:32;;;;;;;8.83;4.20;;;17.20;1.00;;;;;;8419993;28;20208;-71
2022/10/31 09:35:33;;;;;;;7.83;4.23;;;17.30;1.00;;;;;;8401677;28;20204;-71
2022/10/31 09:39:34;;;;;;;9.60;4.90;;;17.40;1.00;;;;;;8401773;28;20180;-70
2022/10/31 09:43:53;;;;;;;12.50;4.70;;;17.50;1.00;;;;;;8417315;28;20193;-69
2022/10/31 09:48:15;;;;;;;10.33;4.57;;;17.50;1.00;;;;;;8416536;28;20189;-70
2022/10/31 09:52:26;;;;;;;8.60;4.40;;;17.50;1.00;;;;;;8396898;28;20239;-71
2022/10/31 09:56:28;;;;;;;8.20;4.60;;;17.70;1.00;;;;;;8396909;28;20203;-71
2022/10/31 10:00:31;;;;;;;9.87;4.00;;;17.80;1.00;;;;;;8399288;28;20184;-70
2022/10/31 10:04:56;;;;;;;9.77;4.30;;;17.90;1.00;;;;;;8399396;28;20254;-71
2022/10/31 10:08:57;;;;;;;11.93;4.13;;;18.10;1.00;;;;;;8412544;28;20540;-70
2022/10/31 10:13:17;;;;;;;11.40;4.50;;;18.20;99.90;;;;;;8398892;28;20204;-70
2022/10/31 10:17:43;;;;;;;7.60;4.10;;;18.20;99.90;;;;;;8416198;28;20184;-70
2022/10/31 10:21:52;;;;;;;14.43;4.23;;;18.30;99.90;;;;;;8416878;28;20186;-70
2022/10/31 10:26:09;;;;;;;9.53;4.70;;;18.40;1.00;;;;;;8418113;28;20239;-70
2022/10/31 10:30:17;;;;;;;8.80;4.43;;;18.60;99.90;;;;;;8419631;28;20196;-70
2022/10/31 10:34:41;;;;;;;10.03;4.33;;;18.80;99.90;;;;;;8398514;28;20207;-72
2022/10/31 10:38:53;;;;;;;12.97;4.27;;;18.90;99.90;;;;;;8418410;28;20180;-71
2022/10/31 10:43:23;;;;;;;10.23;4.90;;;18.90;99.90;;;;;;8418556;28;20194;-71
2022/10/31 10:47:38;;;;;;;10.77;4.53;;;19.00;99.90;;;;;;8417414;28;20215;-70
2022/10/31 10:52:10;;;;;;;7.27;4.07;;;19.30;99.90;;;;;;8396222;28;20200;-71
2022/10/31 10:56:20;;;;;;;9.17;4.20;;;19.40;99.90;;;;;;8395739;28;20235;-70
2022/10/31 11:00:31;;;;;;;15.33;4.70;;;19.50;99.90;;;;;;8415709;28;20202;-70
2022/10/31 11:04:35;;;;;;;8.43;4.70;;;19.40;99.90;;;;;;8416526;28;20205;-71
2022/10/31 11:08:36;;;;;;;13.33;4.83;;;19.50;99.90;;;;;;8416815;28;20188;-75
2022/10/31 11:12:37;;;;;;;12.50;4.80;;;19.40;99.90;;;;;;8397417;28;20204;-71
2022/10/31 11:16:45;;;;;;;12.87;4.90;;;19.50;99.90;;;;;;8412945;28;20227;-71
2022/10/31 11:20:53;;;;;;;9.97;4.43;;;19.70;99.90;;;;;;8413991;28;20199;-70
2022/10/31 11:24:54;;;;;;;17.63;4.53;;;19.60;99.90;;;;;;8399495;28;20253;-70
2022/10/31 11:28:59;;;;;;;10.13;4.87;;;19.60;99.90;;;;;;8396929;28;20275;-70
2022/10/31 11:33:00;;;;;;;9.00;3.87;;;19.60;99.90;;;;;;8396481;28;20234;-70
2022/10/31 11:37:21;;;;;;;8.70;4.20;;;19.60;99.90;;;;;;8390590;28;20275;-71
2022/10/31 11:41:34;;;;;;;9.27;4.00;;;19.60;99.90;;;;;;8396333;28;20212;-69
2022/10/31 11:45:36;;;;;;;9.50;4.37;;;19.80;99.90;;;;;;8412818;28;20195;-69
2022/10/31 11:49:40;;;;;;;9.53;4.40;;;20.00;99.90;;;;;;8395437;28;20235;-70
2022/10/31 11:53:51;;;;;;;11.50;4.70;;;20.00;99.90;;;;;;8395271;28;20276;-70
2022/10/31 11:57:55;;;;;;;15.20;4.90;;;20.00;99.90;;;;;;8394880;28;20207;-72
2022/10/31 12:02:01;;;;;;;8.40;3.70;;;19.90;99.90;;;;;;8412524;28;20185;-70
2022/10/31 12:06:20;;;;;;;9.67;4.47;;;20.10;99.90;;;;;;8393827;28;20280;-70
2022/10/31 12:10:27;;;;;;;7.60;4.57;;;20.20;99.90;;;;;;8413938;28;20185;-70
2022/10/31 12:14:55;;;;;;;8.33;4.27;;;20.30;99.90;;;;;;8413029;28;20348;-69
2022/10/31 12:19:05;;;;;;;8.70;4.33;;;20.30;99.90;;;;;;8394123;28;20219;-69
2022/10/31 12:23:31;;;;;;;11.83;4.80;;;20.20;99.90;;;;;;8394203;28;20230;-70
2022/10/31 12:28:04;;;;;;;9.77;4.07;;;20.10;99.90;;;;;;8415162;28;20185;-70
2022/10/31 12:32:44;;;;;;;8.67;4.90;;;20.10;99.90;;;;;;8400325;28;20232;-70
2022/10/31 12:37:03;;;;;;;10.37;3.83;;;20.20;99.90;;;;;;8249429;28;20290;-70
2022/10/31 12:41:27;;;;;;;12.23;4.93;;;20.30;99.90;;;;;;8339200;28;20197;-70
2022/10/31 12:45:43;;;;;;;7.93;4.80;;;20.20;99.90;;;;;;8405226;28;20180;-70
2022/10/31 12:49:50;;;;;;;5.57;4.23;;;20.10;99.90;;;;;;8412706;28;20188;-70
2022/10/31 12:54:14;;;;;;;6.80;3.63;;;20.10;99.90;;;;;;8400605;28;20205;-70
2022/10/31 12:58:55;;;;;;;6.37;3.80;;;20.20;99.90;;;;;;8406007;28;20302;-70
2022/10/31 13:03:19;;;;;;;6.83;3.77;;;20.30;99.90;;;;;;8292687;28;20216;-70
2022/10/31 13:07:30;;;;;;;11.57;4.33;;;20.50;99.90;;;;;;8392284;28;20188;-70
2022/10/31 13:11:36;;;;;;;9.00;3.43;;;20.50;99.90;;;;;;8398823;28;20272;-70
2022/10/31 13:16:20;;;;;;;11.77;4.37;;;20.60;99.90;;;;;;8418082;28;20181;-71
2022/10/31 13:20:27;;;;;;;11.50;4.20;;;20.70;99.90;;;;;;8400570;28;20188;-69
2022/10/31 13:24:41;;;;;;;11.60;4.57;;;20.70;99.90;;;;;;8402522;28;20184;-70
2022/10/31 13:28:51;;;;;;;13.67;4.40;;;20.60;99.90;;;;;;8417757;28;20192;-69
2022/10/31 13:32:56;;;;;;;11.47;4.43;;;20.50;99.90;;;;;;8417579;28;20299;-70
2022/10/31 13:37:16;;;;;;;7.37;3.70;;;20.40;99.90;;;;;;8402507;28;20264;-69
2022/10/31 13:41:26;;;;;;;7.77;4.00;;;20.50;99.90;;;;;;8417268;28;20214;-70
2022/10/31 13:45:28;;;;;;;11.03;4.10;;;20.50;99.90;;;;;;8400913;28;20235;-69
2022/10/31 13:49:29;;;;;;;8.63;4.17;;;20.50;99.90;;;;;;8398006;28;20195;-69
2022/10/31 13:53:58;;;;;;;9.40;3.73;;;20.50;99.90;;;;;;8416514;28;20253;-69
2022/10/31 13:57:59;;;;;;;6.03;3.47;;;20.40;99.90;;;;;;8400169;28;20204;-69
2022/10/31 14:02:12;;;;;;;6.93;3.63;;;20.30;99.90;;;;;;8414707;28;20241;-69
2022/10/31 14:06:15;;;;;;;9.73;3.70;;;20.30;99.90;;;;;;8414494;28;20201;-69
2022/10/31 14:10:35;;;;;;;9.10;3.90;;;20.20;99.90;;;;;;8398401;28;20180;-69
2022/10/31 14:14:44;;;;;;;6.80;3.70;;;20.10;99.90;;;;;;8401897;28;20220;-69
2022/10/31 14:19:09;;;;;;;7.50;3.87;;;20.00;99.90;;;;;;8417655;28;20248;-69
2022/10/31 14:23:11;;;;;;;4.53;3.20;;;19.90;99.90;;;;;;8379720;28;20345;-70
2022/10/31 14:27:27;;;;;;;7.90;3.50;;;19.80;1.00;;;;;;8395866;28;20195;-69
2022/10/31 14:31:46;;;;;;;5.90;3.83;;;19.60;1.00;;;;;;8397049;28;20204;-70
2022/10/31 14:35:49;;;;;;;7.03;3.43;;;19.40;1.00;;;;;;8414335;28;20307;-69
2022/10/31 14:40:07;;;;;;;6.07;3.63;;;19.30;1.00;;;;;;8395491;28;20185;-68
2022/10/31 14:44:10;;;;;;;4.77;3.93;;;19.10;44.20;;;;;;8395783;28;20184;-70
2022/10/31 14:48:14;;;;;;;4.77;3.10;;;18.80;99.90;;;;;;8396515;28;20193;-71
2022/10/31 14:52:18;;;;;;;5.10;3.50;;;18.60;99.90;;;;;;8397111;28;20232;-69
2022/10/31 14:56:50;;;;;;;4.33;3.10;;;18.30;99.90;;;;;;8413852;28;20242;-69
2022/10/31 15:00:59;;;;;;;6.10;3.63;;;18.00;99.90;;;;;;8395158;28;20216;-69
2022/10/31 15:05:01;;;;;;;4.83;3.47;;;17.80;1.00;;;;;;8413797;28;20204;-70
2022/10/31 15:09:02;;;;;;;4.57;3.47;;;17.50;1.00;;;;;;8415815;28;20189;-69
2022/10/31 15:13:23;;;;;;;5.57;3.40;;;17.20;99.90;;;;;;8398281;28;20574;-69
2022/10/31 15:17:25;;;;;;;6.27;3.87;;;17.00;99.90;;;;;;8415669;28;20196;-70
2022/10/31 15:21:28;;;;;;;6.03;3.70;;;16.70;99.90;;;;;;8415242;28;20261;-69
2022/10/31 15:25:34;;;;;;;5.30;3.60;;;16.40;1.00;;;;;;8414507;28;20184;-69
2022/10/31 15:29:35;;;;;;;8.47;4.10;;;16.10;41.40;;;;;;8389446;28;20189;-69
2022/10/31 15:33:47;;;;;;;5.43;4.40;;;15.80;99.90;;;;;;8396958;28;20295;-70
2022/10/31 15:37:48;;;;;;;6.87;4.37;;;15.50;99.90;;;;;;8416427;28;20242;-68
2022/10/31 15:41:54;;;;;;;6.50;4.37;;;15.30;9.00;;;;;;8414056;28;20272;-69
2022/10/31 15:45:56;;;;;;;4.70;3.67;;;15.00;99.90;;;;;;8393028;28;20192;-69
2022/10/31 15:49:59;;;;;;;6.70;4.63;;;14.80;99.90;;;;;;8412470;28;20189;-69
2022/10/31 15:54:00;;;;;;;7.03;4.63;;;14.60;99.90;;;;;;8413598;28;20293;-69
2022/10/31 15:58:09;;;;;;;6.57;4.50;;;14.40;99.90;;;;;;8412915;28;20226;-68
2022/10/31 16:02:12;;;;;;;8.07;4.40;;;14.20;54.20;;;;;;8412931;28;20218;-69
2022/10/31 16:06:21;;;;;;;7.27;4.83;;;14.10;1.00;;;;;;8418373;28;20192;-69
2022/10/31 16:10:25;;;;;;;6.63;4.33;;;13.90;99.90;;;;;;8403374;28;20184;-69
2022/10/31 16:14:29;;;;;;;6.50;4.40;;;13.70;99.90;;;;;;8402804;28;20291;-68
2022/10/31 16:18:36;;;;;;;5.77;4.57;;;13.60;99.90;;;;;;8419710;28;20196;-68
2022/10/31 16:22:38;;;;;;;6.63;4.77;;;13.40;95.50;;;;;;8418568;28;20192;-69
2022/10/31 16:26:39;;;;;;;7.93;4.73;;;13.30;99.90;;;;;;8419835;28;20184;-69
2022/10/31 16:30:43;;;;;;;9.07;5.37;;;13.10;99.90;;;;;;8419890;28;20184;-68
2022/10/31 16:34:44;;;;;;;7.00;5.03;;;13.00;99.90;;;;;;8403181;28;20273;-69
2022/10/31 16:38:45;;;;;;;6.07;4.60;;;12.90;99.90;;;;;;8401951;28;20631;-67
2022/10/31 16:42:48;;;;;;;7.93;4.63;;;12.80;99.90;;;;;;8421456;28;20195;-69
2022/10/31 16:47:12;;;;;;;8.77;5.70;;;12.70;99.90;;;;;;8416823;28;20192;-68
2022/10/31 16:51:13;;;;;;;7.73;5.60;;;12.50;1.00;;;;;;8397854;28;20333;-69
2022/10/31 16:55:15;;;;;;;8.43;5.47;;;12.40;1.00;;;;;;8417254;28;20222;-69
2022/10/31 16:59:17;;;;;;;7.97;5.30;;;12.30;1.00;;;;;;8400600;28;20213;-68
2022/10/31 17:03:18;;;;;;;7.97;5.77;;;12.20;9.30;;;;;;8400687;28;20189;-68
2022/10/31 17:07:19;;;;;;;11.10;7.03;;;12.10;37.40;;;;;;8419055;28;20203;-68
2022/10/31 17:11:24;;;;;;;8.90;6.50;;;12.00;99.90;;;;;;8419157;28;20185;-68
2022/10/31 17:15:27;;;;;;;8.87;5.67;;;11.90;99.90;;;;;;8400732;28;20184;-68
2022/10/31 17:19:28;;;;;;;7.70;5.13;;;11.70;99.90;;;;;;8398564;28;20246;-67
2022/10/31 17:23:29;;;;;;;7.97;5.43;;;11.70;99.90;;;;;;8405861;28;20222;-68
2022/10/31 17:27:30;;;;;;;8.47;5.10;;;11.50;99.90;;;;;;8400716;28;20269;-68
2022/10/31 17:31:35;;;;;;;6.57;5.27;;;11.40;99.90;;;;;;8401072;28;20204;-68
2022/10/31 17:35:36;;;;;;;8.20;5.37;;;11.30;99.90;;;;;;8400678;28;20223;-68
2022/10/31 17:39:37;;;;;;;7.90;5.37;;;11.30;99.90;;;;;;8399311;28;20179;-69
2022/10/31 17:43:38;;;;;;;7.80;4.83;;;11.10;99.90;;;;;;8400377;28;20478;-69
2022/10/31 17:47:43;;;;;;;6.53;5.13;;;11.00;99.90;;;;;;8416366;28;20180;-69
2022/10/31 17:51:44;;;;;;;6.40;5.23;;;11.00;99.90;;;;;;8415648;28;20235;-69
2022/10/31 17:55:45;;;;;;;6.90;5.50;;;10.90;99.90;;;;;;8398626;28;20215;-69
2022/10/31 17:59:46;;;;;;;8.00;5.33;;;10.80;99.90;;;;;;8397569;28;20205;-69
2022/10/31 18:03:47;;;;;;;6.17;5.00;;;10.70;99.90;;;;;;8416152;28;20217;-70
2022/10/31 18:07:51;;;;;;;7.83;5.30;;;10.70;99.90;;;;;;8397909;28;20356;-70
2022/10/31 18:11:52;;;;;;;8.43;6.37;;;10.60;99.90;;;;;;8413097;28;20261;-70
2022/10/31 18:15:53;;;;;;;7.67;6.83;;;10.60;99.90;;;;;;8416960;28;20192;-69
2022/10/31 18:19:56;;;;;;;13.10;8.20;;;10.60;99.90;;;;;;8412583;28;20183;-68
2022/10/31 18:23:59;;;;;;;13.37;6.97;;;10.50;99.90;;;;;;8415607;28;20184;-68
2022/10/31 18:28:01;;;;;;;8.60;6.03;;;10.40;99.90;;;;;;8415436;28;20188;-68
2022/10/31 18:32:02;;;;;;;7.57;5.90;;;10.40;99.90;;;;;;8396639;28;20528;-68
2022/10/31 18:36:07;;;;;;;8.73;5.73;;;10.30;99.90;;;;;;8409468;28;20179;-68
2022/10/31 18:40:08;;;;;;;8.40;5.47;;;10.30;99.90;;;;;;8412985;28;20191;-68
2022/10/31 18:44:09;;;;;;;8.40;5.87;;;10.20;99.90;;;;;;8393406;28;20266;-69
2022/10/31 18:48:13;;;;;;;9.07;6.40;;;10.10;99.90;;;;;;8396586;28;20192;-68
2022/10/31 18:52:13;;;;;;;13.80;8.83;;;10.10;99.90;;;;;;8397364;28;20206;-68
2022/10/31 18:56:14;;;;;;;18.97;10.47;;;10.10;99.90;;;;;;8394411;28;20250;-68
2022/10/31 19:00:17;;;;;;;11.20;8.07;;;10.10;99.90;;;;;;8396972;28;20206;-68
2022/10/31 19:04:18;;;;;;;14.70;8.03;;;10.10;99.90;;;;;;8411485;28;20219;-69
2022/10/31 19:08:19;;;;;;;12.70;8.83;;;10.00;99.90;;;;;;8394994;28;20185;-68
2022/10/31 19:12:20;;;;;;;17.83;11.70;;;10.00;99.90;;;;;;8411774;28;20193;-68
2022/10/31 19:16:20;;;;;;;15.00;10.70;;;10.00;99.90;;;;;;8398025;28;20175;-68
2022/10/31 19:20:21;;;;;;;13.33;9.77;;;10.00;99.90;;;;;;8415162;28;20197;-68
2022/10/31 19:24:23;;;;;;;16.70;9.47;;;9.90;99.90;;;;;;8414981;28;20252;-69
2022/10/31 19:28:23;;;;;;;12.50;7.70;;;9.90;99.90;;;;;;8393985;28;20265;-68
2022/10/31 19:32:24;;;;;;;12.07;8.13;;;9.80;99.90;;;;;;8411421;28;20238;-69
2022/10/31 19:36:25;;;;;;;17.13;12.30;;;9.80;99.90;;;;;;8413118;28;20246;-69
2022/10/31 19:40:26;;;;;;;27.20;20.00;;;9.80;99.90;;;;;;8392781;28;20183;-68
2022/10/31 19:44:29;;;;;;;29.93;21.03;;;9.80;99.90;;;;;;8394922;28;20262;-69
2022/10/31 19:48:31;;;;;;;16.57;11.57;;;9.80;99.90;;;;;;8407453;28;20234;-68
2022/10/31 19:52:37;;;;;;;22.40;14.03;;;9.80;99.90;;;;;;8413429;28;20205;-68
2022/10/31 19:56:38;;;;;;;18.37;12.70;;;9.80;99.90;;;;;;8396193;28;20219;-69
2022/10/31 20:00:39;;;;;;;14.03;9.77;;;9.80;99.90;;;;;;8397519;28;20176;-67
2022/10/31 20:04:40;;;;;;;25.63;16.30;;;9.80;99.90;;;;;;8414363;28;20209;-69
2022/10/31 20:08:41;;;;;;;27.67;17.53;;;9.90;99.90;;;;;;8395156;28;20186;-69
2022/10/31 20:12:42;;;;;;;22.63;14.87;;;9.90;99.90;;;;;;8397194;28;20213;-68
2022/10/31 20:16:44;;;;;;;27.47;16.90;;;9.80;99.90;;;;;;8413669;28;20217;-68
2022/10/31 20:20:45;;;;;;;26.90;16.83;;;9.70;99.90;;;;;;8414181;28;20183;-68
2022/10/31 20:24:46;;;;;;;24.97;14.87;;;9.60;99.90;;;;;;8393191;28;20194;-69
2022/10/31 20:28:47;;;;;;;27.50;16.60;;;9.50;99.90;;;;;;8415753;28;20192;-67
2022/10/31 20:32:48;;;;;;;27.23;17.20;;;9.50;99.90;;;;;;8396794;28;20210;-68
2022/10/31 20:36:49;;;;;;;44.50;28.57;;;9.50;99.90;;;;;;8413698;28;20208;-68
2022/10/31 20:40:50;;;;;;;29.97;20.87;;;9.40;99.90;;;;;;8394446;28;20265;-68
2022/10/31 20:44:51;;;;;;;31.60;20.70;;;9.40;99.90;;;;;;8416045;28;20249;-68
2022/10/31 20:48:53;;;;;;;73.70;42.60;;;9.30;99.90;;;;;;8412583;28;20182;-69
2022/10/31 20:52:54;;;;;;;82.93;49.37;;;9.30;99.90;;;;;;8399474;28;20209;-69
2022/10/31 20:56:55;;;;;;;68.20;42.03;;;9.40;99.90;;;;;;8399784;28;20204;-69
2022/10/31 21:00:56;;;;;;;56.60;34.43;;;9.40;99.90;;;;;;8402550;28;20203;-69
2022/10/31 21:04:57;;;;;;;44.33;27.60;;;9.30;99.90;;;;;;8399178;28;20292;-69
2022/10/31 21:08:58;;;;;;;27.63;16.53;;;9.20;99.90;;;;;;8417475;28;20193;-69
2022/10/31 21:12:58;;;;;;;28.50;18.03;;;9.20;99.90;;;;;;8415640;28;20261;-69
2022/10/31 21:16:59;;;;;;;29.83;17.60;;;9.30;99.90;;;;;;8399531;28;20267;-69